Valier, Illinois
Current Conditions -  °F | °C
As of 2:50 PM on Monday 22 Dec 2014 (Local Time) from KMWA Reporting Station
Drizzle Drizzle  
Wind Chill: 50°   Ceiling: 600
Heat Index: 50°   Visibility: 7mi
Dew Point: 48°   Wind: 9mph
Humidity: 94%   Direction: 160°SSE
Pressure: 29.64"   Gusts: NA
Location:  38.02°N, 89.04°W
Report Text: KMWA 222050Z 16008KT 7SM DZ OVC006 10/09 A2964
Loading
Personal Weather Stations






























Interactive Weather Map New forecast layout! Learn more

10-Day Weather Forecast

Advertisements
Track Severe Weather on mobile